createdAt,value
2022-10-23T00:02:02.671Z,92.75
2022-10-23T00:04:31.341Z,93.77
2022-10-23T00:07:00.131Z,94.02
2022-10-23T00:09:28.761Z,93.80
2022-10-23T00:11:58.769Z,93.27
2022-10-23T00:14:27.620Z,93.03
2022-10-23T00:16:56.238Z,92.98
2022-10-23T00:19:25.041Z,92.90
2022-10-23T00:21:53.884Z,93.15
2022-10-23T00:24:22.570Z,93.48
2022-10-23T00:26:51.838Z,93.02
2022-10-23T00:29:21.889Z,93.31
2022-10-23T00:31:50.561Z,93.26
2022-10-23T00:34:19.952Z,93.29
2022-10-23T00:36:48.607Z,93.18
2022-10-23T00:39:17.281Z,92.98
2022-10-23T00:41:46.121Z,93.07
2022-10-23T00:45:06.644Z,93.10
2022-10-23T00:47:36.939Z,93.68
2022-10-23T00:50:06.907Z,93.99
2022-10-23T00:52:42.050Z,93.93
2022-10-23T00:55:11.744Z,93.84
2022-10-23T00:57:45.829Z,94.05
2022-10-23T01:00:20.726Z,93.79
2022-10-23T01:02:51.577Z,93.50
2022-10-23T01:05:26.867Z,93.80
2022-10-23T01:08:03.704Z,94.08
2022-10-23T01:10:41.173Z,93.96
2022-10-23T01:13:22.602Z,93.38
2022-10-23T01:15:57.872Z,93.56
2022-10-23T01:18:37.386Z,93.29
2022-10-23T01:21:13.638Z,93.22
2022-10-23T01:24:12.584Z,93.35
2022-10-23T01:27:01.880Z,93.18
2022-10-23T01:29:39.317Z,93.90
2022-10-23T01:32:17.011Z,94.01
2022-10-23T01:34:53.134Z,94.07
2022-10-23T01:37:30.636Z,94.38
2022-10-23T01:40:10.672Z,94.11
2022-10-23T01:42:49.404Z,94.41
2022-10-23T01:45:29.335Z,93.66
2022-10-23T01:48:00.545Z,94.00
2022-10-23T01:50:32.762Z,93.95
2022-10-23T01:53:06.369Z,94.13
2022-10-23T01:55:35.708Z,93.75
2022-10-23T01:58:08.781Z,93.84
2022-10-23T02:00:46.392Z,93.43
2022-10-23T02:03:19.720Z,94.26
2022-10-23T02:05:48.820Z,94.04
2022-10-23T02:08:17.586Z,93.42
2022-10-23T02:10:56.928Z,92.98
2022-10-23T02:13:35.133Z,93.08
2022-10-23T02:16:17.706Z,93.80
2022-10-23T02:18:56.789Z,94.07
2022-10-23T02:21:35.618Z,93.76
2022-10-23T02:24:10.850Z,93.72
2022-10-23T02:26:52.889Z,93.81
2022-10-23T02:29:32.216Z,93.98
2022-10-23T02:32:03.425Z,93.87
2022-10-23T02:34:32.041Z,94.21
2022-10-23T02:37:00.667Z,94.42
2022-10-23T02:39:30.406Z,94.57
2022-10-23T02:42:11.273Z,94.38
2022-10-23T02:44:58.051Z,94.22
2022-10-23T02:47:46.155Z,94.18
2022-10-23T02:50:32.687Z,94.91
2022-10-23T02:53:14.130Z,94.74
2022-10-23T02:55:59.083Z,94.45
2022-10-23T02:58:38.585Z,94.77
2022-10-23T03:01:14.024Z,95.21
2022-10-23T03:03:51.818Z,94.74
2022-10-23T03:06:21.172Z,93.82
2022-10-23T03:08:54.825Z,94.45
2022-10-23T03:11:26.919Z,94.51
2022-10-23T03:13:57.818Z,94.59
2022-10-23T03:16:26.883Z,94.65
2022-10-23T03:18:58.202Z,94.20
2022-10-23T03:21:27.062Z,94.35
2022-10-23T03:23:55.769Z,94.71
2022-10-23T03:26:33.121Z,94.40
2022-10-23T03:29:02.003Z,94.44
2022-10-23T03:31:30.665Z,94.61
2022-10-23T03:34:04.148Z,94.48
2022-10-23T03:36:36.112Z,94.85
2022-10-23T03:39:05.865Z,94.91
2022-10-23T03:41:34.579Z,94.76
2022-10-23T03:46:36.832Z,95.07
2022-10-23T03:49:07.736Z,95.04
2022-10-23T03:51:36.916Z,94.73
2022-10-23T03:54:06.199Z,94.24
2022-10-23T03:56:35.134Z,94.15
2022-10-23T03:59:03.975Z,93.93
2022-10-23T04:01:32.769Z,94.40
2022-10-23T04:04:01.549Z,94.70
2022-10-23T04:06:32.539Z,94.18
2022-10-23T04:09:01.455Z,93.76
2022-10-23T04:11:30.104Z,93.90
2022-10-23T04:13:58.720Z,93.40
2022-10-23T04:16:27.687Z,93.70
2022-10-23T04:18:56.338Z,93.35
2022-10-23T04:21:25.046Z,93.28
2022-10-23T04:23:55.166Z,93.54
2022-10-23T04:26:24.682Z,93.97
2022-10-23T04:28:53.505Z,94.27
2022-10-23T04:31:22.134Z,94.41
2022-10-23T04:33:51.382Z,93.59
2022-10-23T04:36:31.626Z,93.26
2022-10-23T04:39:11.639Z,92.85
2022-10-23T04:41:40.378Z,92.69
2022-10-23T04:44:12.398Z,93.50
2022-10-23T04:46:41.058Z,92.98
2022-10-23T04:49:11.493Z,93.08
2022-10-23T04:51:48.884Z,93.56
2022-10-23T04:54:41.583Z,93.59
2022-10-23T04:57:32.713Z,93.74
2022-10-23T05:00:09.740Z,93.33
2022-10-23T05:02:58.738Z,92.79
2022-10-23T05:05:33.964Z,92.73
2022-10-23T05:08:29.039Z,92.81
2022-10-23T05:11:08.411Z,92.85
2022-10-23T05:13:42.732Z,92.20
2022-10-23T05:16:13.895Z,92.46
2022-10-23T05:18:48.909Z,92.10
2022-10-23T05:21:25.979Z,92.16
2022-10-23T05:23:56.568Z,91.69
2022-10-23T05:26:27.049Z,92.26
2022-10-23T05:28:56.044Z,92.48
2022-10-23T05:31:27.042Z,92.76
2022-10-23T05:34:01.950Z,92.68
2022-10-23T05:36:32.330Z,92.82
2022-10-23T05:39:03.651Z,93.32
2022-10-23T05:41:35.322Z,93.19
2022-10-23T05:44:04.906Z,92.75
2022-10-23T05:46:52.081Z,92.63
2022-10-23T05:49:39.831Z,92.48
2022-10-23T05:52:27.554Z,92.24
2022-10-23T05:55:22.064Z,92.64
2022-10-23T05:58:15.633Z,93.23
2022-10-23T06:01:18.654Z,93.12
2022-10-23T06:04:03.013Z,93.11
2022-10-23T06:06:51.012Z,92.99
2022-10-23T06:09:20.146Z,92.62
2022-10-23T06:11:49.654Z,92.38
2022-10-23T06:14:24.357Z,92.47
2022-10-23T06:16:54.107Z,92.47
2022-10-23T06:19:24.742Z,92.51
2022-10-23T06:21:56.801Z,92.99
2022-10-23T06:24:36.490Z,92.81
2022-10-23T06:27:09.287Z,92.70
2022-10-23T06:29:47.222Z,93.15
2022-10-23T06:32:17.097Z,93.25
2022-10-23T06:34:53.410Z,93.17
2022-10-23T06:37:22.734Z,92.61
2022-10-23T06:39:57.771Z,93.10
2022-10-23T06:42:36.781Z,93.00
2022-10-23T06:45:35.278Z,93.07
2022-10-23T06:48:24.737Z,93.35
2022-10-23T06:51:08.624Z,93.34
2022-10-23T06:53:46.830Z,93.06
2022-10-23T06:56:39.645Z,93.43
2022-10-23T06:59:11.369Z,93.26
2022-10-23T07:01:46.267Z,93.36
2022-10-23T07:04:18.537Z,93.48
2022-10-23T07:06:47.908Z,93.17
2022-10-23T07:09:19.257Z,93.73
2022-10-23T07:11:54.756Z,93.37
2022-10-23T07:14:32.463Z,93.60
2022-10-23T07:17:05.205Z,93.59
2022-10-23T07:19:35.968Z,93.53
2022-10-23T07:22:13.423Z,93.76
2022-10-23T07:24:57.215Z,94.13
2022-10-23T07:27:38.742Z,94.24
2022-10-23T07:30:12.645Z,94.24
2022-10-23T07:32:54.595Z,94.25
2022-10-23T07:35:41.984Z,94.74
2022-10-23T07:38:17.931Z,94.87
2022-10-23T07:40:53.921Z,95.23
2022-10-23T07:43:25.682Z,95.66
2022-10-23T07:45:55.794Z,95.81
2022-10-23T07:48:37.413Z,96.09
2022-10-23T07:51:11.021Z,96.17
2022-10-23T07:53:49.524Z,96.63
2022-10-23T07:56:35.605Z,96.08
2022-10-23T07:59:16.074Z,96.74
2022-10-23T08:01:53.861Z,97.34
2022-10-23T08:04:28.081Z,97.61
2022-10-23T08:07:01.860Z,97.76
2022-10-23T08:09:38.171Z,98.25
2022-10-23T08:12:07.765Z,98.36
2022-10-23T08:14:43.395Z,98.75
2022-10-23T08:17:59.337Z,99.10
2022-10-23T08:20:52.498Z,100.00
2022-10-23T08:23:21.685Z,100.00
2022-10-23T08:25:50.782Z,100.00
2022-10-23T08:28:19.984Z,100.00
2022-10-23T08:30:57.313Z,100.00
2022-10-23T08:33:26.980Z,100.00
2022-10-23T08:35:57.046Z,100.00
2022-10-23T08:38:31.911Z,100.00
2022-10-23T08:41:02.893Z,100.00
2022-10-23T08:44:08.682Z,100.00
2022-10-23T08:46:48.458Z,100.00
2022-10-23T08:49:47.497Z,100.00
2022-10-23T08:52:29.040Z,100.00
2022-10-23T08:55:18.503Z,100.00
2022-10-23T08:58:05.061Z,100.00
2022-10-23T09:00:35.274Z,100.00
2022-10-23T09:03:06.994Z,99.79
2022-10-23T09:05:56.603Z,99.05
2022-10-23T09:08:53.369Z,99.63
2022-10-23T09:11:34.020Z,99.66
2022-10-23T09:14:27.904Z,99.28
2022-10-23T09:19:51.719Z,96.54
2022-10-23T09:22:20.433Z,95.81
2022-10-23T09:24:53.740Z,95.14
2022-10-23T09:27:22.874Z,94.15
2022-10-23T09:29:55.568Z,92.72
2022-10-23T09:32:36.208Z,91.36
2022-10-23T09:35:07.597Z,89.65
2022-10-23T09:37:37.603Z,89.96
2022-10-23T09:40:19.947Z,87.51
2022-10-23T09:42:55.103Z,87.22
2022-10-23T09:45:28.538Z,84.69
2022-10-23T09:48:13.279Z,84.41
2022-10-23T09:51:01.295Z,80.99
2022-10-23T09:53:39.669Z,84.10
2022-10-23T09:56:28.011Z,84.09
2022-10-23T09:59:00.553Z,83.97
2022-10-23T10:01:32.864Z,85.20
2022-10-23T10:04:39.127Z,85.74
2022-10-23T10:07:21.040Z,87.34
2022-10-23T10:09:50.766Z,87.68
2022-10-23T10:12:44.244Z,88.92
2022-10-23T10:15:23.952Z,89.74
2022-10-23T10:18:14.256Z,90.07
2022-10-23T10:21:00.068Z,90.73
2022-10-23T10:23:39.057Z,90.79
2022-10-23T10:26:27.755Z,91.29
2022-10-23T10:29:11.984Z,90.73
2022-10-23T10:32:01.639Z,91.07
2022-10-23T10:34:40.749Z,89.26
2022-10-23T10:37:27.401Z,89.82
2022-10-23T10:40:10.467Z,87.33
2022-10-23T10:43:15.592Z,87.83
2022-10-23T10:45:49.948Z,87.41
2022-10-23T10:48:42.254Z,86.93
2022-10-23T10:51:48.595Z,85.79
2022-10-23T10:54:37.132Z,83.20
2022-10-23T10:57:28.560Z,84.19
2022-10-23T11:00:04.875Z,83.21
2022-10-23T11:02:43.990Z,84.13
2022-10-23T11:05:26.676Z,84.59
2022-10-23T11:08:00.927Z,85.61
2022-10-23T11:10:31.080Z,85.64
2022-10-23T11:12:59.922Z,85.43
2022-10-23T11:15:37.766Z,86.59
2022-10-23T11:18:19.580Z,85.45
2022-10-23T11:21:08.578Z,84.10
2022-10-23T11:24:20.947Z,85.69
2022-10-23T11:27:11.543Z,84.36
2022-10-23T11:30:18.820Z,83.67
2022-10-23T11:33:30.519Z,82.65
2022-10-23T11:36:17.225Z,81.20
2022-10-23T11:38:50.278Z,82.81
2022-10-23T11:41:26.452Z,80.83
2022-10-23T11:44:01.691Z,82.86
2022-10-23T11:46:37.322Z,82.71
2022-10-23T11:49:21.955Z,83.34
2022-10-23T11:52:02.634Z,85.50
2022-10-23T11:54:31.641Z,84.96
2022-10-23T11:57:14.239Z,84.72
2022-10-23T11:59:54.846Z,84.56
2022-10-23T12:02:33.619Z,85.79
2022-10-23T12:05:08.522Z,85.21
2022-10-23T12:07:41.955Z,85.43
2022-10-23T12:10:28.840Z,84.98
2022-10-23T12:13:00.854Z,84.21
2022-10-23T12:15:29.970Z,83.39
2022-10-23T12:18:15.946Z,83.93
2022-10-23T12:20:53.964Z,83.93
2022-10-23T12:23:53.800Z,82.58
2022-10-23T12:26:54.624Z,82.67
2022-10-23T12:29:43.010Z,82.93
2022-10-23T12:32:32.278Z,81.75
2022-10-23T12:35:47.752Z,80.05
2022-10-23T12:38:21.338Z,77.97
2022-10-23T12:40:55.922Z,78.39
2022-10-23T12:43:31.752Z,78.38
2022-10-23T12:46:06.828Z,75.67
2022-10-23T12:48:35.936Z,75.54
2022-10-23T12:51:04.857Z,74.93
2022-10-23T12:53:34.880Z,72.86
2022-10-23T12:56:06.855Z,75.09
2022-10-23T12:58:38.156Z,72.73
2022-10-23T13:01:09.042Z,74.89
2022-10-23T13:03:39.842Z,75.35
2022-10-23T13:06:11.431Z,75.67
2022-10-23T13:08:46.013Z,76.09
2022-10-23T13:11:38.058Z,76.70
2022-10-23T13:14:14.231Z,76.78
2022-10-23T13:16:42.893Z,76.92
2022-10-23T13:19:26.098Z,78.07
2022-10-23T13:21:55.071Z,78.26
2022-10-23T13:24:28.742Z,75.53
2022-10-23T13:26:58.968Z,78.13
2022-10-23T13:29:32.314Z,77.43
2022-10-23T13:32:12.257Z,78.46
2022-10-23T13:34:40.956Z,79.44
2022-10-23T13:37:25.553Z,79.25
2022-10-23T13:40:10.245Z,79.48
2022-10-23T13:42:38.970Z,78.81
2022-10-23T13:45:19.740Z,78.42
2022-10-23T13:47:48.610Z,79.32
2022-10-23T13:50:17.624Z,78.60
2022-10-23T13:52:46.952Z,75.56
2022-10-23T13:55:24.882Z,76.87
2022-10-23T13:57:53.963Z,75.85
2022-10-23T14:00:22.810Z,76.91
2022-10-23T14:02:51.519Z,78.70
2022-10-23T14:05:20.600Z,79.42
2022-10-23T14:07:49.236Z,78.99
2022-10-23T14:10:22.524Z,79.82
2022-10-23T14:12:55.003Z,80.76
2022-10-23T14:15:26.041Z,81.91
2022-10-23T14:17:59.040Z,81.54
2022-10-23T14:20:44.286Z,82.24
2022-10-23T14:23:14.532Z,83.25
2022-10-23T14:25:45.601Z,83.09
2022-10-23T14:28:14.943Z,83.70
2022-10-23T14:30:44.529Z,83.79
2022-10-23T14:33:15.084Z,83.87
2022-10-23T14:35:44.122Z,84.38
2022-10-23T14:38:13.574Z,84.18
2022-10-23T14:40:44.213Z,84.42
2022-10-23T14:43:13.776Z,85.59
2022-10-23T14:45:42.614Z,86.08
2022-10-23T14:48:11.835Z,86.32
2022-10-23T14:50:47.605Z,86.50
2022-10-23T14:53:17.994Z,86.74
2022-10-23T14:55:48.091Z,86.80
2022-10-23T14:58:17.631Z,86.75
2022-10-23T15:00:58.105Z,86.89
2022-10-23T15:03:28.299Z,86.91
2022-10-23T15:05:58.519Z,86.65
2022-10-23T15:08:29.281Z,86.57
2022-10-23T15:11:04.227Z,86.48
2022-10-23T15:13:35.922Z,86.40
2022-10-23T15:16:11.802Z,86.25
2022-10-23T15:18:40.518Z,86.03
2022-10-23T15:21:10.785Z,85.71
2022-10-23T15:23:42.310Z,85.22
2022-10-23T15:26:20.201Z,85.31
2022-10-23T15:28:55.814Z,85.37
2022-10-23T15:31:54.915Z,85.34
2022-10-23T15:34:26.523Z,85.32
2022-10-23T15:36:57.763Z,85.89
2022-10-23T15:39:35.569Z,85.90
2022-10-23T15:42:08.019Z,86.56
2022-10-23T15:44:38.569Z,86.57
2022-10-23T15:47:07.976Z,86.46
2022-10-23T15:49:38.820Z,86.79
2022-10-23T15:54:39.146Z,86.57
2022-10-23T15:57:09.666Z,86.76
2022-10-23T15:59:39.955Z,87.73
2022-10-23T16:02:09.049Z,87.54
2022-10-23T16:04:37.715Z,87.48
2022-10-23T16:07:07.280Z,87.60
2022-10-23T16:09:36.985Z,87.96
2022-10-23T16:12:06.352Z,88.28
2022-10-23T16:14:36.364Z,88.33
2022-10-23T16:17:05.257Z,89.06
2022-10-23T16:19:35.393Z,89.46
2022-10-23T16:22:04.826Z,89.03
2022-10-23T16:24:34.381Z,89.40
2022-10-23T16:27:03.004Z,89.13
2022-10-23T16:29:32.390Z,89.44
2022-10-23T16:32:16.081Z,89.93
2022-10-23T16:34:45.555Z,89.64
2022-10-23T16:37:14.217Z,89.67
2022-10-23T16:40:11.082Z,89.42
2022-10-23T16:43:06.602Z,90.30
2022-10-23T16:45:41.196Z,90.19
2022-10-23T16:48:11.335Z,89.98
2022-10-23T16:50:41.231Z,90.33
2022-10-23T16:53:10.294Z,90.68
2022-10-23T16:55:42.389Z,90.76
2022-10-23T16:58:12.897Z,90.22
2022-10-23T17:00:43.550Z,89.77
2022-10-23T17:03:14.810Z,89.05
2022-10-23T17:05:45.046Z,89.26
2022-10-23T17:08:15.093Z,89.14
2022-10-23T17:10:44.722Z,88.93
2022-10-23T17:13:14.375Z,89.11
2022-10-23T17:15:45.443Z,88.98
2022-10-23T17:18:15.963Z,89.73
2022-10-23T17:20:45.425Z,90.09
2022-10-23T17:23:14.597Z,89.82
2022-10-23T17:25:44.651Z,90.20
2022-10-23T17:28:14.129Z,89.90
2022-10-23T17:30:44.480Z,89.89
2022-10-23T17:33:15.488Z,89.84
2022-10-23T17:35:45.618Z,90.15
2022-10-23T17:38:18.395Z,89.85
2022-10-23T17:40:48.913Z,89.53
2022-10-23T17:43:17.608Z,89.67
2022-10-23T17:45:46.367Z,89.28
2022-10-23T17:48:17.407Z,89.26
2022-10-23T17:50:46.333Z,89.21
2022-10-23T17:53:15.831Z,88.95
2022-10-23T17:55:45.328Z,88.67
2022-10-23T17:58:14.385Z,88.44
2022-10-23T18:00:43.941Z,89.08
2022-10-23T18:03:15.488Z,88.65
2022-10-23T18:05:50.183Z,89.05
2022-10-23T18:08:19.163Z,88.29
2022-10-23T18:10:48.295Z,89.38
2022-10-23T18:13:18.060Z,88.57
2022-10-23T18:15:47.252Z,88.49
2022-10-23T18:18:17.877Z,89.44
2022-10-23T18:20:51.614Z,89.89
2022-10-23T18:23:20.773Z,89.71
2022-10-23T18:25:50.037Z,89.08
2022-10-23T18:28:20.086Z,88.66
2022-10-23T18:30:51.174Z,88.97
2022-10-23T18:33:24.824Z,89.06
2022-10-23T18:35:57.181Z,88.98
2022-10-23T18:38:26.638Z,89.25
2022-10-23T18:40:56.999Z,89.18
2022-10-23T18:43:42.456Z,89.07
2022-10-23T18:46:13.595Z,88.82
2022-10-23T18:48:45.703Z,88.75
2022-10-23T18:51:20.362Z,88.79
2022-10-23T18:53:50.531Z,88.67
2022-10-23T18:56:26.901Z,88.75
2022-10-23T18:58:58.322Z,88.79
2022-10-23T19:01:31.680Z,89.12
2022-10-23T19:04:03.427Z,89.19
2022-10-23T19:06:37.454Z,89.35
2022-10-23T19:09:10.486Z,89.14
2022-10-23T19:11:40.711Z,89.02
2022-10-23T19:14:10.535Z,88.92
2022-10-23T19:16:46.115Z,88.79
2022-10-23T19:19:21.850Z,88.82
2022-10-23T19:21:54.542Z,88.68
2022-10-23T19:24:30.553Z,88.79
2022-10-23T19:27:03.476Z,88.69
2022-10-23T19:29:35.289Z,89.01
2022-10-23T19:32:04.862Z,89.39
2022-10-23T19:34:36.303Z,88.94
2022-10-23T19:37:07.364Z,89.33
2022-10-23T19:39:36.497Z,89.17
2022-10-23T19:42:06.137Z,89.14
2022-10-23T19:44:35.133Z,89.14
2022-10-23T19:47:05.181Z,89.57
2022-10-23T19:49:34.115Z,89.43
2022-10-23T19:52:06.415Z,89.86
2022-10-23T19:54:36.022Z,90.28
2022-10-23T19:57:06.233Z,90.46
2022-10-23T19:59:35.216Z,90.61
2022-10-23T20:02:04.037Z,90.56
2022-10-23T20:04:33.831Z,90.87
2022-10-23T20:07:03.149Z,91.01
2022-10-23T20:09:34.320Z,90.81
2022-10-23T20:12:03.869Z,91.38
2022-10-23T20:14:33.919Z,91.23
2022-10-23T20:17:03.122Z,91.18
2022-10-23T20:19:32.208Z,91.15
2022-10-23T20:22:01.851Z,91.68
2022-10-23T20:24:32.695Z,91.54
2022-10-23T20:27:02.049Z,91.67
2022-10-23T20:29:31.052Z,91.56
2022-10-23T20:32:00.370Z,91.30
2022-10-23T20:34:29.260Z,91.39
2022-10-23T20:36:58.048Z,91.37
2022-10-23T20:39:27.009Z,91.45
2022-10-23T20:41:58.225Z,91.40
2022-10-23T20:44:26.929Z,91.89
2022-10-23T20:46:55.954Z,91.80
2022-10-23T20:49:25.379Z,92.39
2022-10-23T20:51:56.307Z,92.02
2022-10-23T20:54:27.662Z,92.05
2022-10-23T20:56:58.929Z,92.28
2022-10-23T20:59:27.690Z,92.40
2022-10-23T21:01:57.598Z,92.34
2022-10-23T21:04:28.945Z,92.93
2022-10-23T21:07:16.479Z,92.90
2022-10-23T21:09:45.397Z,92.89
2022-10-23T21:12:15.539Z,92.83
2022-10-23T21:14:44.204Z,93.09
2022-10-23T21:17:16.960Z,93.08
2022-10-23T21:19:45.771Z,93.16
2022-10-23T21:22:14.545Z,93.23
2022-10-23T21:24:43.105Z,93.45
2022-10-23T21:27:11.677Z,94.36
2022-10-23T21:29:41.782Z,95.97
2022-10-23T21:32:10.366Z,95.48
2022-10-23T21:34:39.169Z,97.08
2022-10-23T21:37:12.901Z,97.08
2022-10-23T21:39:43.169Z,98.17
2022-10-23T21:42:12.279Z,98.50
2022-10-23T21:44:42.663Z,98.76
2022-10-23T21:47:11.528Z,99.18
2022-10-23T21:49:40.167Z,99.00
2022-10-23T21:52:08.840Z,98.99
2022-10-23T21:54:38.030Z,99.42
2022-10-23T21:57:06.771Z,99.29
2022-10-23T21:59:36.283Z,99.58
2022-10-23T22:02:06.482Z,99.78
2022-10-23T22:04:35.438Z,99.78
2022-10-23T22:07:04.699Z,100.00
2022-10-23T22:09:35.106Z,100.00
2022-10-23T22:12:05.247Z,100.00
2022-10-23T22:14:33.898Z,100.00
2022-10-23T22:17:02.488Z,100.00
2022-10-23T22:19:33.016Z,100.00
2022-10-23T22:22:01.646Z,100.00
2022-10-23T22:24:30.352Z,100.00
2022-10-23T22:26:59.045Z,100.00
2022-10-23T22:29:30.984Z,100.00
2022-10-23T22:31:59.732Z,100.00
2022-10-23T22:34:51.700Z,100.00
2022-10-23T22:37:20.198Z,100.00
2022-10-23T22:39:52.299Z,100.00
2022-10-23T22:42:21.836Z,100.00
2022-10-23T22:44:50.478Z,100.00
2022-10-23T22:47:19.071Z,100.00
2022-10-23T22:49:49.101Z,100.00
2022-10-23T22:52:17.799Z,100.00
2022-10-23T22:54:46.447Z,100.00
2022-10-23T22:57:15.150Z,100.00
2022-10-23T22:59:43.760Z,100.00
2022-10-23T23:02:12.384Z,100.00
2022-10-23T23:04:40.991Z,100.00
2022-10-23T23:07:13.753Z,100.00
2022-10-23T23:09:45.121Z,100.00
2022-10-23T23:12:15.382Z,100.00
2022-10-23T23:14:44.635Z,100.00
2022-10-23T23:17:13.574Z,100.00
2022-10-23T23:19:42.186Z,100.00
2022-10-23T23:22:12.226Z,100.00
2022-10-23T23:24:44.632Z,100.00
2022-10-23T23:27:13.296Z,100.00
2022-10-23T23:29:41.863Z,100.00
2022-10-23T23:32:11.853Z,100.00
2022-10-23T23:34:40.527Z,100.00
2022-10-23T23:37:09.218Z,100.00
2022-10-23T23:39:39.355Z,100.00
2022-10-23T23:42:08.209Z,100.00
2022-10-23T23:44:42.066Z,100.00
2022-10-23T23:47:19.068Z,100.00
2022-10-23T23:49:47.753Z,100.00
2022-10-23T23:52:16.384Z,100.00
2022-10-23T23:54:46.489Z,100.00
2022-10-23T23:57:15.272Z,100.00
2022-10-23T23:59:43.883Z,100.00
